createdAt,value
2022-10-11T00:01:16.327Z,100982.50
2022-10-11T00:03:42.911Z,101003.09
2022-10-11T00:06:09.610Z,100991.88
2022-10-11T00:08:36.094Z,100979.22
2022-10-11T00:11:05.746Z,100989.50
2022-10-11T00:13:32.518Z,100988.84
2022-10-11T00:15:59.569Z,100988.94
2022-10-11T00:18:26.409Z,100990.03
2022-10-11T00:21:04.310Z,100972.34
2022-10-11T00:23:30.861Z,100985.91
2022-10-11T00:25:59.004Z,100998.25
2022-10-11T00:28:25.281Z,100996.66
2022-10-11T00:30:51.841Z,100998.50
2022-10-11T00:33:18.066Z,100989.91
2022-10-11T00:35:44.555Z,100979.87
2022-10-11T00:38:11.077Z,100992.63
2022-10-11T00:40:37.336Z,100987.56
2022-10-11T00:43:03.658Z,100984.16
2022-10-11T00:45:30.094Z,100982.41
2022-10-11T00:47:59.024Z,100971.88
2022-10-11T00:50:27.211Z,100973.53
2022-10-11T00:52:56.668Z,100966.47
2022-10-11T00:55:24.036Z,100944.94
2022-10-11T00:57:52.687Z,100960.69
2022-10-11T01:00:19.848Z,100943.00
2022-10-11T01:02:46.360Z,100952.09
2022-10-11T01:05:30.663Z,100960.34
2022-10-11T01:07:59.221Z,100944.06
2022-10-11T01:10:25.918Z,100958.09
2022-10-11T01:12:55.178Z,100957.00
2022-10-11T01:15:31.872Z,100958.69
2022-10-11T01:18:31.768Z,100954.12
2022-10-11T01:21:08.685Z,100960.75
2022-10-11T01:23:50.051Z,100936.06
2022-10-11T01:26:38.425Z,100962.09
2022-10-11T01:29:13.373Z,100953.41
2022-10-11T01:32:15.181Z,100957.59
2022-10-11T01:35:03.324Z,100957.59
2022-10-11T01:37:36.531Z,100950.13
2022-10-11T01:40:13.261Z,100952.16
2022-10-11T01:42:41.078Z,100952.34
2022-10-11T01:45:15.879Z,100951.50
2022-10-11T01:47:42.598Z,100928.75
2022-10-11T01:50:30.983Z,100946.94
2022-10-11T01:52:59.214Z,100948.41
2022-10-11T01:55:38.015Z,100932.94
2022-10-11T01:58:49.790Z,100931.91
2022-10-11T02:01:42.275Z,100941.72
2022-10-11T02:04:16.830Z,100941.53
2022-10-11T02:06:56.322Z,100939.78
2022-10-11T02:09:42.232Z,100939.56
2022-10-11T02:12:13.691Z,100942.00
2022-10-11T02:14:43.571Z,100945.22
2022-10-11T02:17:18.768Z,100943.88
2022-10-11T02:19:48.535Z,100945.09
2022-10-11T02:22:28.128Z,100930.72
2022-10-11T02:24:57.907Z,100940.53
2022-10-11T02:27:27.300Z,100944.00
2022-10-11T02:29:55.109Z,100948.28
2022-10-11T02:32:23.858Z,100946.50
2022-10-11T02:34:58.443Z,100944.72
2022-10-11T02:37:41.782Z,100945.28
2022-10-11T02:40:12.294Z,100945.47
2022-10-11T02:42:44.322Z,100942.47
2022-10-11T02:45:18.094Z,100949.75
2022-10-11T02:47:45.041Z,100947.22
2022-10-11T02:50:12.907Z,100944.69
2022-10-11T02:52:39.246Z,100916.62
2022-10-11T02:55:06.543Z,100942.81
2022-10-11T02:57:32.792Z,100937.78
2022-10-11T02:59:59.047Z,100933.84
2022-10-11T03:02:25.559Z,100947.50
2022-10-11T03:04:51.800Z,100946.75
2022-10-11T03:07:18.023Z,100948.63
2022-10-11T03:09:45.151Z,100948.41
2022-10-11T03:12:11.440Z,100959.72
2022-10-11T03:14:37.668Z,100954.44
2022-10-11T03:17:30.873Z,100949.00
2022-10-11T03:19:51.537Z,100940.50
2022-10-11T03:22:18.055Z,100949.56
2022-10-11T03:24:44.273Z,100948.63
2022-10-11T03:27:10.554Z,100928.44
2022-10-11T03:29:37.086Z,100951.06
2022-10-11T03:32:03.513Z,100947.53
2022-10-11T03:34:29.819Z,100947.34
2022-10-11T03:36:56.357Z,100948.00
2022-10-11T03:39:22.738Z,100942.09
2022-10-11T03:41:48.975Z,100951.84
2022-10-11T03:44:15.590Z,100941.63
2022-10-11T03:46:41.830Z,100953.50
2022-10-11T03:49:08.058Z,100951.19
2022-10-11T03:51:34.737Z,100946.03
2022-10-11T03:54:00.964Z,100946.50
2022-10-11T03:56:27.254Z,100946.78
2022-10-11T03:58:53.785Z,100951.25
2022-10-11T04:01:20.164Z,100946.00
2022-10-11T04:03:46.798Z,100945.81
2022-10-11T04:06:13.019Z,100949.56
2022-10-11T04:08:39.246Z,100945.66
2022-10-11T04:11:05.880Z,100945.00
2022-10-11T04:13:32.131Z,100950.53
2022-10-11T04:15:58.372Z,100940.03
2022-10-11T04:18:24.941Z,100948.47
2022-10-11T04:20:51.194Z,100950.16
2022-10-11T04:23:17.427Z,100954.25
2022-10-11T04:25:45.448Z,100956.69
2022-10-11T04:28:11.729Z,100958.19
2022-10-11T04:30:38.004Z,100961.56
2022-10-11T04:33:04.580Z,100957.53
2022-10-11T04:35:30.980Z,100949.00
2022-10-11T04:37:57.223Z,100958.56
2022-10-11T04:40:23.942Z,100968.69
2022-10-11T04:42:51.862Z,100956.69
2022-10-11T04:45:18.103Z,100968.87
2022-10-11T04:47:44.713Z,100970.75
2022-10-11T04:50:11.027Z,100965.00
2022-10-11T04:52:37.282Z,100981.41
2022-10-11T04:55:04.185Z,100987.13
2022-10-11T04:57:30.481Z,100988.53
2022-10-11T04:59:56.722Z,100989.94
2022-10-11T05:02:23.270Z,100988.06
2022-10-11T05:04:49.532Z,100986.13
2022-10-11T05:07:15.765Z,100986.13
2022-10-11T05:09:42.383Z,100952.47
2022-10-11T05:12:08.740Z,100991.94
2022-10-11T05:14:34.991Z,100983.22
2022-10-11T05:17:01.510Z,100983.09
2022-10-11T05:19:27.838Z,100991.94
2022-10-11T05:21:55.101Z,100988.34
2022-10-11T05:24:21.784Z,100971.38
2022-10-11T05:26:48.302Z,100980.59
2022-10-11T05:29:15.823Z,100961.31
2022-10-11T05:31:42.342Z,100971.84
2022-10-11T05:34:08.594Z,100999.00
2022-10-11T05:36:34.854Z,100966.16
2022-10-11T05:39:01.420Z,100981.03
2022-10-11T05:41:29.172Z,101001.19
2022-10-11T05:43:55.441Z,100999.97
2022-10-11T05:46:22.220Z,101005.22
2022-10-11T05:48:48.434Z,101011.13
2022-10-11T05:51:14.681Z,101013.44
2022-10-11T05:53:41.342Z,101008.38
2022-10-11T05:56:19.921Z,101009.91
2022-10-11T05:58:46.511Z,100990.41
2022-10-11T06:01:20.336Z,101011.38
2022-10-11T06:03:47.146Z,101023.75
2022-10-11T06:06:13.442Z,101032.91
2022-10-11T06:08:39.853Z,101028.03
2022-10-11T06:11:20.971Z,101024.09
2022-10-11T06:13:47.573Z,101028.78
2022-10-11T06:16:14.276Z,101031.56
2022-10-11T06:18:40.748Z,101035.66
2022-10-11T06:21:07.180Z,101038.09
2022-10-11T06:23:33.803Z,101027.94
2022-10-11T06:26:02.536Z,101048.00
2022-10-11T06:28:29.523Z,101045.53
2022-10-11T06:30:56.619Z,101047.47
2022-10-11T06:33:22.946Z,101047.16
2022-10-11T06:35:49.232Z,101040.78
2022-10-11T06:38:15.831Z,101035.22
2022-10-11T06:40:42.306Z,101045.06
2022-10-11T06:43:08.565Z,101040.03
2022-10-11T06:45:35.123Z,101044.34
2022-10-11T06:48:02.274Z,101038.59
2022-10-11T06:50:54.370Z,101037.53
2022-10-11T06:53:15.130Z,101040.91
2022-10-11T06:55:41.421Z,101036.13
2022-10-11T06:58:07.837Z,101037.63
2022-10-11T07:00:34.396Z,101044.53
2022-10-11T07:03:00.704Z,101057.37
2022-10-11T07:05:29.302Z,101054.19
2022-10-11T07:07:55.855Z,101063.25
2022-10-11T07:10:22.118Z,101064.41
2022-10-11T07:12:48.366Z,101047.69
2022-10-11T07:15:14.928Z,101066.72
2022-10-11T07:17:42.211Z,101030.81
2022-10-11T07:20:09.485Z,101062.50
2022-10-11T07:22:36.052Z,101066.63
2022-10-11T07:25:02.560Z,101052.94
2022-10-11T07:27:28.865Z,101054.31
2022-10-11T07:29:55.482Z,101072.22
2022-10-11T07:32:21.976Z,101069.78
2022-10-11T07:34:48.276Z,101072.09
2022-10-11T07:37:14.826Z,101058.44
2022-10-11T07:39:41.554Z,101071.81
2022-10-11T07:42:09.831Z,101064.97
2022-10-11T07:44:36.591Z,101064.53
2022-10-11T07:47:04.163Z,101065.19
2022-10-11T07:49:32.132Z,101078.63
2022-10-11T07:51:58.677Z,101080.13
2022-10-11T07:54:25.097Z,101078.44
2022-10-11T07:56:51.429Z,101060.25
2022-10-11T07:59:17.945Z,101084.72
2022-10-11T08:01:44.410Z,101078.13
2022-10-11T08:04:11.001Z,101082.00
2022-10-11T08:06:37.337Z,101073.19
2022-10-11T08:09:05.480Z,101082.09
2022-10-11T08:11:35.194Z,101081.88
2022-10-11T08:14:01.891Z,101081.47
2022-10-11T08:16:28.247Z,101083.88
2022-10-11T08:18:56.924Z,101070.22
2022-10-11T08:21:23.411Z,101080.09
2022-10-11T08:23:49.671Z,101084.94
2022-10-11T08:26:16.265Z,101095.84
2022-10-11T08:28:42.630Z,101093.72
2022-10-11T08:31:12.562Z,101077.56
2022-10-11T08:33:39.472Z,101096.28
2022-10-11T08:36:07.470Z,101095.44
2022-10-11T08:38:36.566Z,101097.19
2022-10-11T08:41:03.516Z,101079.44
2022-10-11T08:43:29.666Z,101094.44
2022-10-11T08:45:58.362Z,101089.41
2022-10-11T08:48:46.804Z,101088.47
2022-10-11T08:51:22.657Z,101088.66
2022-10-11T08:54:21.229Z,101092.62
2022-10-11T08:56:47.842Z,101080.75
2022-10-11T08:59:44.899Z,101077.53
2022-10-11T09:03:02.911Z,101087.75
2022-10-11T09:05:22.967Z,101082.78
2022-10-11T09:08:21.286Z,101085.69
2022-10-11T09:11:04.371Z,101090.28
2022-10-11T09:13:43.763Z,101094.47
2022-10-11T09:16:16.540Z,101096.59
2022-10-11T09:18:53.136Z,101087.63
2022-10-11T09:21:23.083Z,101092.69
2022-10-11T09:24:04.451Z,101092.59
2022-10-11T09:26:53.564Z,101104.75
2022-10-11T09:29:29.460Z,101098.69
2022-10-11T09:31:57.581Z,101098.78
2022-10-11T09:34:26.610Z,101103.00
2022-10-11T09:37:33.579Z,101095.94
2022-10-11T09:40:12.119Z,101109.50
2022-10-11T09:42:38.398Z,101098.94
2022-10-11T09:45:19.166Z,101104.84
2022-10-11T09:47:45.524Z,101103.16
2022-10-11T09:50:26.213Z,101100.25
2022-10-11T09:52:56.065Z,101099.16
2022-10-11T09:55:40.889Z,101101.91
2022-10-11T09:58:28.476Z,101102.16
2022-10-11T10:01:05.124Z,101103.00
2022-10-11T10:03:36.191Z,101082.56
2022-10-11T10:06:23.903Z,101075.84
2022-10-11T10:08:50.771Z,101079.19
2022-10-11T10:11:18.017Z,101090.63
2022-10-11T10:13:46.542Z,101079.19
2022-10-11T10:16:33.515Z,101083.78
2022-10-11T10:19:02.253Z,101091.34
2022-10-11T10:21:32.884Z,101077.66
2022-10-11T10:24:03.983Z,101095.34
2022-10-11T10:26:32.265Z,101085.72
2022-10-11T10:29:09.862Z,101084.78
2022-10-11T10:34:37.012Z,101061.53
2022-10-11T10:37:34.713Z,101063.66
2022-10-11T10:40:14.086Z,101086.03
2022-10-11T10:42:40.842Z,101072.53
2022-10-11T10:45:18.662Z,101061.09
2022-10-11T10:48:15.142Z,101085.38
2022-10-11T10:50:55.441Z,101091.31
2022-10-11T10:53:50.846Z,101088.44
2022-10-11T10:56:33.215Z,101083.81
2022-10-11T10:59:19.551Z,101076.00
2022-10-11T11:01:56.520Z,101084.53
2022-10-11T11:04:33.642Z,101076.59
2022-10-11T11:07:20.817Z,101074.22
2022-10-11T11:10:10.904Z,101064.59
2022-10-11T11:13:04.885Z,101072.00
2022-10-11T11:15:38.132Z,101079.72
2022-10-11T11:18:31.797Z,101084.84
2022-10-11T11:21:07.915Z,101076.22
2022-10-11T11:23:57.642Z,101072.31
2022-10-11T11:26:30.037Z,101083.03
2022-10-11T11:29:08.819Z,101077.91
2022-10-11T11:31:59.080Z,101068.38
2022-10-11T11:34:38.913Z,101076.47
2022-10-11T11:37:23.198Z,101072.13
2022-10-11T11:39:52.415Z,101061.69
2022-10-11T11:42:41.953Z,101056.91
2022-10-11T11:45:14.244Z,101070.31
2022-10-11T11:47:42.666Z,101066.41
2022-10-11T11:50:23.835Z,101065.13
2022-10-11T11:53:01.418Z,101067.53
2022-10-11T11:55:28.587Z,101062.25
2022-10-11T11:57:55.060Z,101057.09
2022-10-11T12:00:23.539Z,101061.13
2022-10-11T12:02:58.686Z,101054.44
2022-10-11T12:05:31.931Z,101048.84
2022-10-11T12:12:24.799Z,101056.34
2022-10-11T12:14:52.622Z,101043.09
2022-10-11T12:17:21.842Z,101040.31
2022-10-11T12:20:24.176Z,101031.81
2022-10-11T12:22:54.119Z,101044.66
2022-10-11T12:25:23.415Z,101047.72
2022-10-11T12:27:52.153Z,101047.16
2022-10-11T12:30:48.248Z,101036.56
2022-10-11T12:33:16.134Z,101049.97
2022-10-11T12:35:54.759Z,101028.47
2022-10-11T12:38:28.461Z,101044.63
2022-10-11T12:41:08.672Z,101047.09
2022-10-11T12:43:49.979Z,101042.97
2022-10-11T12:46:29.731Z,101050.50
2022-10-11T12:49:00.209Z,101039.91
2022-10-11T12:51:37.546Z,101034.88
2022-10-11T12:54:28.185Z,101036.84
2022-10-11T12:57:26.682Z,101040.19
2022-10-11T12:59:52.943Z,101037.81
2022-10-11T13:02:42.554Z,101036.56
2022-10-11T13:05:17.159Z,101033.50
2022-10-11T13:07:43.778Z,101026.94
2022-10-11T13:10:15.864Z,101036.13
2022-10-11T13:12:43.606Z,101033.06
2022-10-11T13:15:15.541Z,101029.28
2022-10-11T13:17:42.227Z,101035.56
2022-10-11T13:20:19.573Z,101028.03
2022-10-11T13:22:49.336Z,101037.91
2022-10-11T13:25:18.627Z,101040.69
2022-10-11T13:27:44.969Z,101031.34
2022-10-11T13:30:20.906Z,101031.22
2022-10-11T13:32:47.555Z,101028.56
2022-10-11T13:35:34.888Z,101029.69
2022-10-11T13:38:02.847Z,101023.97
2022-10-11T13:40:30.163Z,101024.25
2022-10-11T13:42:56.782Z,101028.00
2022-10-11T13:45:25.357Z,101028.81
2022-10-11T13:47:53.957Z,101033.53
2022-10-11T13:50:34.517Z,101017.75
2022-10-11T13:53:24.848Z,101033.78
2022-10-11T13:55:53.476Z,101034.00
2022-10-11T13:58:40.280Z,101037.63
2022-10-11T14:01:20.028Z,101031.62
2022-10-11T14:03:54.911Z,101040.81
2022-10-11T14:06:21.346Z,101034.34
2022-10-11T14:08:51.576Z,101037.66
2022-10-11T14:11:36.051Z,101035.12
2022-10-11T14:14:28.209Z,101038.62
2022-10-11T14:17:23.042Z,101036.22
2022-10-11T14:20:17.044Z,101032.56
2022-10-11T14:22:43.932Z,101007.72
2022-10-11T14:25:11.049Z,101025.62
2022-10-11T14:27:37.675Z,101024.16
2022-10-11T14:30:25.212Z,101030.72
2022-10-11T14:32:54.322Z,101014.22
2022-10-11T14:35:29.312Z,101029.56
2022-10-11T14:37:55.880Z,101031.50
2022-10-11T14:40:24.484Z,101032.47
2022-10-11T14:42:51.273Z,101023.25
2022-10-11T14:45:18.299Z,101028.53
2022-10-11T14:47:44.570Z,101028.22
2022-10-11T14:50:27.295Z,101029.59
2022-10-11T14:52:54.202Z,101021.44
2022-10-11T14:55:20.526Z,101028.56
2022-10-11T14:57:46.766Z,101038.09
2022-10-11T15:00:22.803Z,101034.53
2022-10-11T15:02:50.434Z,101033.22
2022-10-11T15:05:17.129Z,101024.84
2022-10-11T15:07:43.508Z,101031.25
2022-10-11T15:10:26.051Z,101026.69
2022-10-11T15:12:54.012Z,101045.09
2022-10-11T15:15:23.078Z,101039.44
2022-10-11T15:17:57.409Z,101046.06
2022-10-11T15:20:27.379Z,101048.00
2022-10-11T15:22:54.562Z,101043.06
2022-10-11T15:25:21.344Z,101046.94
2022-10-11T15:27:48.172Z,101047.28
2022-10-11T15:30:20.989Z,101052.12
2022-10-11T15:32:47.684Z,101049.25
2022-10-11T15:35:14.257Z,101056.69
2022-10-11T15:37:40.899Z,101046.16
2022-10-11T15:40:27.179Z,101051.44
2022-10-11T15:42:54.595Z,101044.97
2022-10-11T15:45:22.104Z,101040.03
2022-10-11T15:47:49.588Z,101051.91
2022-10-11T15:50:34.633Z,101050.50
2022-10-11T15:53:02.793Z,101056.25
2022-10-11T15:55:30.242Z,101052.06
2022-10-11T15:57:57.234Z,101055.03
2022-10-11T16:00:25.160Z,101059.72
2022-10-11T16:02:52.419Z,101037.22
2022-10-11T16:05:24.657Z,101041.78
2022-10-11T16:07:51.809Z,101062.78
2022-10-11T16:10:19.293Z,101054.63
2022-10-11T16:12:45.838Z,101061.22
2022-10-11T16:15:12.410Z,101060.69
2022-10-11T16:17:38.966Z,101060.09
2022-10-11T16:20:07.101Z,101064.75
2022-10-11T16:22:34.780Z,101051.31
2022-10-11T16:25:02.305Z,101066.91
2022-10-11T16:27:28.866Z,101064.50
2022-10-11T16:29:55.114Z,101073.34
2022-10-11T16:32:22.838Z,101070.84
2022-10-11T16:34:49.129Z,101071.91
2022-10-11T16:37:15.708Z,101073.59
2022-10-11T16:39:42.518Z,101067.94
2022-10-11T16:42:08.761Z,101078.00
2022-10-11T16:44:37.853Z,101078.63
2022-10-11T16:47:05.440Z,101075.16
2022-10-11T16:49:31.737Z,101089.16
2022-10-11T16:52:04.001Z,101085.81
2022-10-11T16:54:31.405Z,101090.00
2022-10-11T16:56:59.072Z,101088.69
2022-10-11T16:59:25.355Z,101089.16
2022-10-11T17:01:51.975Z,101084.97
2022-10-11T17:04:18.242Z,101084.03
2022-10-11T17:06:44.881Z,101093.38
2022-10-11T17:09:11.663Z,101102.97
2022-10-11T17:11:37.902Z,101089.88
2022-10-11T17:14:05.877Z,101097.91
2022-10-11T17:16:32.518Z,101100.56
2022-10-11T17:18:58.762Z,101096.84
2022-10-11T17:21:25.160Z,101101.28
2022-10-11T17:23:51.805Z,101094.56
2022-10-11T17:26:26.935Z,101094.44
2022-10-11T17:28:54.883Z,101099.72
2022-10-11T17:31:21.714Z,101106.91
2022-10-11T17:33:48.156Z,101100.78
2022-10-11T17:36:34.587Z,101107.84
2022-10-11T17:39:06.061Z,101110.59
2022-10-11T17:41:33.117Z,101108.91
2022-10-11T17:47:46.012Z,101107.34
2022-10-11T17:50:12.514Z,101116.19
2022-10-11T17:52:38.743Z,101116.19
2022-10-11T17:55:05.458Z,101119.59
2022-10-11T17:57:31.971Z,101118.84
2022-10-11T17:59:58.213Z,101122.31
2022-10-11T18:02:24.531Z,101129.38
2022-10-11T18:04:51.138Z,101125.06
2022-10-11T18:07:17.364Z,101110.66
2022-10-11T18:09:44.344Z,101128.66
2022-10-11T18:12:10.870Z,101108.25
2022-10-11T18:14:37.105Z,101106.59
2022-10-11T18:17:03.610Z,101128.56
2022-10-11T18:19:30.139Z,101131.06
2022-10-11T18:21:56.385Z,101124.00
2022-10-11T18:24:22.694Z,101129.38
2022-10-11T18:26:49.245Z,101121.94
2022-10-11T18:29:15.727Z,101126.16
2022-10-11T18:31:42.133Z,101114.72
2022-10-11T18:34:10.860Z,101128.16
2022-10-11T18:36:37.881Z,101120.06
2022-10-11T18:39:06.589Z,101107.69
2022-10-11T18:41:34.020Z,101126.19
2022-10-11T18:44:06.351Z,101121.59
2022-10-11T18:46:33.486Z,101132.03
2022-10-11T18:49:01.929Z,101129.63
2022-10-11T18:51:33.528Z,101125.41
2022-10-11T18:54:00.819Z,101110.50
2022-10-11T18:56:28.426Z,101130.91
2022-10-11T18:58:56.258Z,101122.28
2022-10-11T19:01:25.839Z,101122.50
2022-10-11T19:03:56.380Z,101126.19
2022-10-11T19:06:29.590Z,101130.62
2022-10-11T19:09:00.569Z,101132.63
2022-10-11T19:11:27.712Z,101110.75
2022-10-11T19:14:02.572Z,101129.91
2022-10-11T19:16:30.235Z,101130.75
2022-10-11T19:18:57.064Z,101129.28
2022-10-11T19:21:23.574Z,101132.97
2022-10-11T19:23:50.579Z,101124.69
2022-10-11T19:26:20.007Z,101130.47
2022-10-11T19:28:46.825Z,101130.56
2022-10-11T19:31:16.788Z,101137.66
2022-10-11T19:33:44.767Z,101141.09
2022-10-11T19:36:13.175Z,101138.59
2022-10-11T19:38:43.457Z,101139.44
2022-10-11T19:41:09.710Z,101136.88
2022-10-11T19:43:35.949Z,101133.31
2022-10-11T19:46:06.533Z,101138.87
2022-10-11T19:48:32.962Z,101138.87
2022-10-11T19:51:08.332Z,101141.50
2022-10-11T19:53:35.588Z,101142.44
2022-10-11T19:56:03.439Z,101145.84
2022-10-11T19:58:30.142Z,101133.94
2022-10-11T20:01:05.962Z,101136.47
2022-10-11T20:03:32.885Z,101148.47
2022-10-11T20:06:00.536Z,101142.34
2022-10-11T20:08:28.448Z,101124.69
2022-10-11T20:10:55.272Z,101149.41
2022-10-11T20:13:21.573Z,101145.22
2022-10-11T20:15:47.823Z,101147.84
2022-10-11T20:18:14.347Z,101152.25
2022-10-11T20:20:50.840Z,101124.34
2022-10-11T20:23:18.265Z,101137.66
2022-10-11T20:25:44.848Z,101137.84
2022-10-11T20:28:11.074Z,101145.09
2022-10-11T20:30:43.873Z,101142.44
2022-10-11T20:33:10.148Z,101141.38
2022-10-11T20:35:36.453Z,101126.88
2022-10-11T20:38:02.957Z,101138.75
2022-10-11T20:40:29.195Z,101125.28
2022-10-11T20:42:55.417Z,101141.28
2022-10-11T20:45:21.934Z,101139.50
2022-10-11T20:47:48.172Z,101136.13
2022-10-11T20:50:14.447Z,101145.22
2022-10-11T20:52:40.961Z,101140.03
2022-10-11T20:55:07.523Z,101131.75
2022-10-11T20:57:34.000Z,101140.38
2022-10-11T21:00:00.717Z,101139.94
2022-10-11T21:02:26.974Z,101126.28
2022-10-11T21:04:53.195Z,101144.28
2022-10-11T21:07:19.711Z,101140.91
2022-10-11T21:09:45.937Z,101141.47
2022-10-11T21:12:12.171Z,101126.81
2022-10-11T21:14:38.688Z,101140.06
2022-10-11T21:17:04.928Z,101141.47
2022-10-11T21:19:31.138Z,101141.53
2022-10-11T21:21:57.658Z,101137.66
2022-10-11T21:24:23.894Z,101135.25
2022-10-11T21:26:50.201Z,101135.00
2022-10-11T21:29:17.337Z,101138.87
2022-10-11T21:31:43.602Z,101135.41
2022-10-11T21:34:09.888Z,101121.53
2022-10-11T21:36:36.518Z,101139.28
2022-10-11T21:39:02.964Z,101141.47
2022-10-11T21:41:30.069Z,101140.47
2022-10-11T21:43:57.330Z,101145.50
2022-10-11T21:46:41.712Z,101129.41
2022-10-11T21:49:12.570Z,101151.69
2022-10-11T21:51:38.844Z,101153.03
2022-10-11T21:54:05.538Z,101147.69
2022-10-11T21:56:32.120Z,101153.50
2022-10-11T21:58:58.358Z,101142.03
2022-10-11T22:01:24.847Z,101137.91
2022-10-11T22:03:53.276Z,101148.41
2022-10-11T22:06:19.535Z,101151.13
2022-10-11T22:08:45.797Z,101136.03
2022-10-11T22:11:12.404Z,101153.09
2022-10-11T22:13:38.750Z,101137.19
2022-10-11T22:16:10.351Z,101154.53
2022-10-11T22:18:37.335Z,101126.53
2022-10-11T22:21:17.582Z,101140.56
2022-10-11T22:23:46.150Z,101150.88
2022-10-11T22:26:14.797Z,101152.09
2022-10-11T22:28:41.258Z,101148.63
2022-10-11T22:31:08.912Z,101135.88
2022-10-11T22:33:35.909Z,101144.75
2022-10-11T22:36:04.731Z,101146.28
2022-10-11T22:38:31.359Z,101146.81
2022-10-11T22:40:58.506Z,101137.56
2022-10-11T22:43:24.840Z,101149.75
2022-10-11T22:45:51.357Z,101146.19
2022-10-11T22:48:17.628Z,101140.94
2022-10-11T22:50:43.921Z,101149.66
2022-10-11T22:53:12.536Z,101129.34
2022-10-11T22:55:38.974Z,101150.41
2022-10-11T22:58:05.306Z,101143.94
2022-10-11T23:00:32.159Z,101144.78
2022-10-11T23:02:58.557Z,101131.97
2022-10-11T23:05:24.887Z,101149.94
2022-10-11T23:07:51.434Z,101153.84
2022-10-11T23:10:18.121Z,101128.34
2022-10-11T23:12:44.595Z,101152.06
2022-10-11T23:15:12.105Z,101153.28
2022-10-11T23:17:38.718Z,101159.97
2022-10-11T23:20:05.894Z,101145.81
2022-10-11T23:22:32.571Z,101158.38
2022-10-11T23:24:58.841Z,101139.25
2022-10-11T23:27:25.085Z,101162.09
2022-10-11T23:29:51.607Z,101158.72
2022-10-11T23:32:17.904Z,101159.37
2022-10-11T23:34:44.129Z,101162.09
2022-10-11T23:37:10.642Z,101150.69
2022-10-11T23:39:37.057Z,101166.78
2022-10-11T23:42:03.402Z,101154.41
2022-10-11T23:44:29.997Z,101168.56
2022-10-11T23:46:56.239Z,101156.31
2022-10-11T23:49:22.464Z,101155.00
2022-10-11T23:51:49.062Z,101166.53
2022-10-11T23:54:15.311Z,101166.13
2022-10-11T23:56:41.593Z,101169.06
2022-10-11T23:59:08.179Z,101180.09
